Terminal Aerodrome Forecast
Issued by NWS Bismarck, ND

Home | Current Version | Previous Version | Graphics & Text | Print | Product List | Glossary On
Versions: 1 2 3 4 5 6 7 8 9 10 11 12 13 14 15
000
FTUS43 KBIS 181135
TAFISN
TAF
KISN 181135Z 1812/1912 28011KT P6SM FEW250 WS020/29035KT
     FM181600 28016G23KT P6SM FEW250
     FM182300 26008KT P6SM FEW110 FEW250
     FM190200 19005KT P6SM SCT110=

USA.gov is the U.S. government's official web portal to all federal, state and local government web resources and services.